sensor_id;sensor_type;location;lat;lon;timestamp;P1;durP1;ratioP1;P2;durP2;ratioP2
60241;SDS011;46103;52.076;113.488;2022-10-16T00:00:07;5.28;;;2.25;;
60241;SDS011;46103;52.076;113.488;2022-10-16T00:03:18;6.13;;;2.10;;
60241;SDS011;46103;52.076;113.488;2022-10-16T00:06:34;7.15;;;2.35;;
60241;SDS011;46103;52.076;113.488;2022-10-16T00:09:41;9.65;;;3.25;;
60241;SDS011;46103;52.076;113.488;2022-10-16T00:12:52;11.63;;;3.40;;
60241;SDS011;46103;52.076;113.488;2022-10-16T00:16:02;8.75;;;2.83;;
60241;SDS011;46103;52.076;113.488;2022-10-16T00:19:11;6.47;;;2.40;;
60241;SDS011;46103;52.076;113.488;2022-10-16T00:22:21;6.88;;;1.98;;
60241;SDS011;46103;52.076;113.488;2022-10-16T00:25:30;7.13;;;2.33;;
60241;SDS011;46103;52.076;113.488;2022-10-16T00:28:38;9.25;;;3.20;;
60241;SDS011;46103;52.076;113.488;2022-10-16T00:31:48;7.70;;;2.15;;
60241;SDS011;46103;52.076;113.488;2022-10-16T00:34:57;3.70;;;1.80;;
60241;SDS011;46103;52.076;113.488;2022-10-16T00:38:08;4.32;;;1.73;;
60241;SDS011;46103;52.076;113.488;2022-10-16T00:41:16;3.28;;;1.38;;
60241;SDS011;46103;52.076;113.488;2022-10-16T00:44:42;2.70;;;1.10;;
60241;SDS011;46103;52.076;113.488;2022-10-16T00:48:01;2.33;;;1.00;;
60241;SDS011;46103;52.076;113.488;2022-10-16T00:51:10;2.20;;;0.65;;
60241;SDS011;46103;52.076;113.488;2022-10-16T00:54:23;1.65;;;0.73;;
60241;SDS011;46103;52.076;113.488;2022-10-16T00:57:31;5.40;;;1.35;;
60241;SDS011;46103;52.076;113.488;2022-10-16T01:00:36;2.63;;;0.80;;
60241;SDS011;46103;52.076;113.488;2022-10-16T01:03:39;2.25;;;0.73;;
60241;SDS011;46103;52.076;113.488;2022-10-16T01:13:35;2.38;;;0.90;;
60241;SDS011;46103;52.076;113.488;2022-10-16T01:16:45;4.95;;;1.20;;
60241;SDS011;46103;52.076;113.488;2022-10-16T01:20:02;3.10;;;0.85;;
60241;SDS011;46103;52.076;113.488;2022-10-16T01:27:09;0.70;;;0.60;;
60241;SDS011;46103;52.076;113.488;2022-10-16T01:30:16;1.83;;;0.80;;
60241;SDS011;46103;52.076;113.488;2022-10-16T01:33:33;2.60;;;0.80;;
60241;SDS011;46103;52.076;113.488;2022-10-16T01:36:55;0.63;;;0.50;;
60241;SDS011;46103;52.076;113.488;2022-10-16T01:40:05;3.00;;;0.70;;
60241;SDS011;46103;52.076;113.488;2022-10-16T01:43:12;0.60;;;0.45;;
60241;SDS011;46103;52.076;113.488;2022-10-16T01:46:19;0.73;;;0.50;;
60241;SDS011;46103;52.076;113.488;2022-10-16T01:49:24;1.38;;;0.70;;
60241;SDS011;46103;52.076;113.488;2022-10-16T01:52:36;2.38;;;1.20;;
60241;SDS011;46103;52.076;113.488;2022-10-16T01:55:44;2.22;;;1.00;;
60241;SDS011;46103;52.076;113.488;2022-10-16T02:02:15;0.68;;;0.57;;
60241;SDS011;46103;52.076;113.488;2022-10-16T02:08:35;1.60;;;0.60;;
60241;SDS011;46103;52.076;113.488;2022-10-16T02:11:39;3.78;;;0.65;;
60241;SDS011;46103;52.076;113.488;2022-10-16T02:14:42;1.67;;;1.02;;
60241;SDS011;46103;52.076;113.488;2022-10-16T02:17:46;3.72;;;1.00;;
60241;SDS011;46103;52.076;113.488;2022-10-16T02:21:07;1.08;;;0.50;;
60241;SDS011;46103;52.076;113.488;2022-10-16T02:28:03;2.05;;;0.63;;
60241;SDS011;46103;52.076;113.488;2022-10-16T02:34:26;1.95;;;0.77;;
60241;SDS011;46103;52.076;113.488;2022-10-16T02:37:32;1.23;;;0.70;;
60241;SDS011;46103;52.076;113.488;2022-10-16T02:40:36;2.35;;;0.80;;
60241;SDS011;46103;52.076;113.488;2022-10-16T02:43:40;2.80;;;1.10;;
60241;SDS011;46103;52.076;113.488;2022-10-16T02:46:44;1.15;;;0.63;;
60241;SDS011;46103;52.076;113.488;2022-10-16T02:49:47;1.73;;;0.70;;
60241;SDS011;46103;52.076;113.488;2022-10-16T02:52:51;2.55;;;1.00;;
60241;SDS011;46103;52.076;113.488;2022-10-16T02:55:55;6.00;;;2.08;;
60241;SDS011;46103;52.076;113.488;2022-10-16T02:58:58;4.00;;;0.80;;
60241;SDS011;46103;52.076;113.488;2022-10-16T03:02:02;5.00;;;1.40;;
60241;SDS011;46103;52.076;113.488;2022-10-16T03:05:06;2.72;;;1.20;;
60241;SDS011;46103;52.076;113.488;2022-10-16T03:08:10;2.08;;;0.93;;
60241;SDS011;46103;52.076;113.488;2022-10-16T03:11:13;7.70;;;1.17;;
60241;SDS011;46103;52.076;113.488;2022-10-16T03:14:17;6.22;;;1.17;;
60241;SDS011;46103;52.076;113.488;2022-10-16T03:17:21;1.52;;;0.77;;
60241;SDS011;46103;52.076;113.488;2022-10-16T03:20:25;2.92;;;0.80;;
60241;SDS011;46103;52.076;113.488;2022-10-16T03:23:30;2.85;;;1.00;;
60241;SDS011;46103;52.076;113.488;2022-10-16T03:26:33;1.17;;;0.68;;
60241;SDS011;46103;52.076;113.488;2022-10-16T03:29:38;8.73;;;1.73;;
60241;SDS011;46103;52.076;113.488;2022-10-16T03:32:43;4.57;;;1.60;;
60241;SDS011;46103;52.076;113.488;2022-10-16T03:35:51;2.78;;;0.90;;
60241;SDS011;46103;52.076;113.488;2022-10-16T03:38:56;1.60;;;0.90;;
60241;SDS011;46103;52.076;113.488;2022-10-16T03:42:00;3.97;;;1.20;;
60241;SDS011;46103;52.076;113.488;2022-10-16T03:45:07;0.80;;;0.50;;
60241;SDS011;46103;52.076;113.488;2022-10-16T03:48:12;1.95;;;0.90;;
60241;SDS011;46103;52.076;113.488;2022-10-16T03:51:17;4.30;;;1.10;;
60241;SDS011;46103;52.076;113.488;2022-10-16T03:54:20;2.55;;;0.90;;
60241;SDS011;46103;52.076;113.488;2022-10-16T03:57:25;2.00;;;0.93;;
60241;SDS011;46103;52.076;113.488;2022-10-16T04:00:29;4.18;;;0.82;;
60241;SDS011;46103;52.076;113.488;2022-10-16T04:03:32;0.68;;;0.50;;
60241;SDS011;46103;52.076;113.488;2022-10-16T04:06:36;2.47;;;1.25;;
60241;SDS011;46103;52.076;113.488;2022-10-16T04:09:41;1.95;;;0.90;;
60241;SDS011;46103;52.076;113.488;2022-10-16T04:12:46;3.80;;;1.55;;
60241;SDS011;46103;52.076;113.488;2022-10-16T04:15:50;5.28;;;1.10;;
60241;SDS011;46103;52.076;113.488;2022-10-16T04:18:54;1.42;;;0.80;;
60241;SDS011;46103;52.076;113.488;2022-10-16T04:21:58;1.98;;;1.05;;
60241;SDS011;46103;52.076;113.488;2022-10-16T04:25:03;5.60;;;1.20;;
60241;SDS011;46103;52.076;113.488;2022-10-16T04:28:07;2.63;;;1.15;;
60241;SDS011;46103;52.076;113.488;2022-10-16T04:31:11;3.33;;;1.60;;
60241;SDS011;46103;52.076;113.488;2022-10-16T04:34:16;4.28;;;1.40;;
60241;SDS011;46103;52.076;113.488;2022-10-16T04:37:22;2.22;;;1.00;;
60241;SDS011;46103;52.076;113.488;2022-10-16T04:40:28;2.55;;;1.10;;
60241;SDS011;46103;52.076;113.488;2022-10-16T04:43:31;7.60;;;2.35;;
60241;SDS011;46103;52.076;113.488;2022-10-16T04:46:36;4.50;;;2.10;;
60241;SDS011;46103;52.076;113.488;2022-10-16T04:49:41;11.70;;;6.03;;
60241;SDS011;46103;52.076;113.488;2022-10-16T04:52:44;4.05;;;1.15;;
60241;SDS011;46103;52.076;113.488;2022-10-16T04:55:49;5.18;;;1.55;;
60241;SDS011;46103;52.076;113.488;2022-10-16T04:58:53;9.48;;;3.20;;
60241;SDS011;46103;52.076;113.488;2022-10-16T05:01:57;3.45;;;1.50;;
60241;SDS011;46103;52.076;113.488;2022-10-16T05:05:01;3.25;;;1.52;;
60241;SDS011;46103;52.076;113.488;2022-10-16T05:08:05;2.13;;;1.02;;
60241;SDS011;46103;52.076;113.488;2022-10-16T05:11:10;3.42;;;1.77;;
60241;SDS011;46103;52.076;113.488;2022-10-16T05:14:13;4.78;;;1.90;;
60241;SDS011;46103;52.076;113.488;2022-10-16T05:17:18;1.77;;;1.10;;
60241;SDS011;46103;52.076;113.488;2022-10-16T05:20:22;3.75;;;1.75;;
60241;SDS011;46103;52.076;113.488;2022-10-16T05:23:26;1.35;;;0.70;;
60241;SDS011;46103;52.076;113.488;2022-10-16T05:26:29;6.07;;;1.80;;
60241;SDS011;46103;52.076;113.488;2022-10-16T05:29:33;2.80;;;1.10;;
60241;SDS011;46103;52.076;113.488;2022-10-16T05:32:37;4.55;;;2.33;;
60241;SDS011;46103;52.076;113.488;2022-10-16T05:35:41;4.30;;;2.05;;
60241;SDS011;46103;52.076;113.488;2022-10-16T05:38:50;4.50;;;2.08;;
60241;SDS011;46103;52.076;113.488;2022-10-16T05:41:53;4.25;;;1.92;;
60241;SDS011;46103;52.076;113.488;2022-10-16T05:44:58;1.08;;;0.70;;
60241;SDS011;46103;52.076;113.488;2022-10-16T05:48:02;4.07;;;1.00;;
60241;SDS011;46103;52.076;113.488;2022-10-16T05:51:07;1.02;;;0.68;;
60241;SDS011;46103;52.076;113.488;2022-10-16T05:54:12;1.33;;;0.55;;
60241;SDS011;46103;52.076;113.488;2022-10-16T05:57:17;0.30;;;0.22;;
60241;SDS011;46103;52.076;113.488;2022-10-16T06:00:21;0.90;;;0.50;;
60241;SDS011;46103;52.076;113.488;2022-10-16T06:03:26;1.83;;;0.88;;
60241;SDS011;46103;52.076;113.488;2022-10-16T06:06:30;1.80;;;0.55;;
60241;SDS011;46103;52.076;113.488;2022-10-16T06:09:34;0.85;;;0.60;;
60241;SDS011;46103;52.076;113.488;2022-10-16T06:12:38;3.25;;;0.85;;
60241;SDS011;46103;52.076;113.488;2022-10-16T06:15:42;0.70;;;0.60;;
60241;SDS011;46103;52.076;113.488;2022-10-16T06:18:46;0.90;;;0.47;;
60241;SDS011;46103;52.076;113.488;2022-10-16T06:21:50;3.53;;;1.10;;
60241;SDS011;46103;52.076;113.488;2022-10-16T06:24:55;1.05;;;0.60;;
60241;SDS011;46103;52.076;113.488;2022-10-16T06:27:59;1.13;;;0.70;;
60241;SDS011;46103;52.076;113.488;2022-10-16T06:31:04;5.28;;;0.98;;
60241;SDS011;46103;52.076;113.488;2022-10-16T06:34:09;4.53;;;1.75;;
60241;SDS011;46103;52.076;113.488;2022-10-16T06:37:14;7.03;;;2.47;;
60241;SDS011;46103;52.076;113.488;2022-10-16T06:40:18;2.65;;;1.50;;
60241;SDS011;46103;52.076;113.488;2022-10-16T06:43:22;1.33;;;0.73;;
60241;SDS011;46103;52.076;113.488;2022-10-16T06:46:26;3.45;;;1.00;;
60241;SDS011;46103;52.076;113.488;2022-10-16T06:49:30;2.97;;;1.00;;
60241;SDS011;46103;52.076;113.488;2022-10-16T06:52:36;1.40;;;0.90;;
60241;SDS011;46103;52.076;113.488;2022-10-16T06:55:39;0.75;;;0.50;;
60241;SDS011;46103;52.076;113.488;2022-10-16T06:58:43;3.05;;;1.40;;
60241;SDS011;46103;52.076;113.488;2022-10-16T07:01:47;1.15;;;0.60;;
60241;SDS011;46103;52.076;113.488;2022-10-16T07:04:50;1.55;;;0.50;;
60241;SDS011;46103;52.076;113.488;2022-10-16T07:07:54;3.03;;;0.90;;
60241;SDS011;46103;52.076;113.488;2022-10-16T07:11:01;5.10;;;2.03;;
60241;SDS011;46103;52.076;113.488;2022-10-16T07:14:17;2.85;;;0.90;;
60241;SDS011;46103;52.076;113.488;2022-10-16T07:17:22;3.65;;;1.27;;
60241;SDS011;46103;52.076;113.488;2022-10-16T07:20:25;0.90;;;0.70;;
60241;SDS011;46103;52.076;113.488;2022-10-16T07:23:28;4.68;;;2.00;;
60241;SDS011;46103;52.076;113.488;2022-10-16T07:26:33;10.68;;;4.35;;
60241;SDS011;46103;52.076;113.488;2022-10-16T07:29:39;7.65;;;3.72;;
60241;SDS011;46103;52.076;113.488;2022-10-16T07:32:43;3.00;;;1.10;;
60241;SDS011;46103;52.076;113.488;2022-10-16T07:35:50;1.25;;;0.73;;
60241;SDS011;46103;52.076;113.488;2022-10-16T07:38:55;4.15;;;0.90;;
60241;SDS011;46103;52.076;113.488;2022-10-16T07:42:01;5.47;;;1.90;;
60241;SDS011;46103;52.076;113.488;2022-10-16T07:45:04;1.88;;;0.68;;
60241;SDS011;46103;52.076;113.488;2022-10-16T07:48:09;6.18;;;1.40;;
60241;SDS011;46103;52.076;113.488;2022-10-16T07:51:20;3.17;;;1.75;;
60241;SDS011;46103;52.076;113.488;2022-10-16T07:54:25;4.80;;;1.33;;
60241;SDS011;46103;52.076;113.488;2022-10-16T07:57:29;2.92;;;1.23;;
60241;SDS011;46103;52.076;113.488;2022-10-16T08:00:35;8.60;;;3.10;;
60241;SDS011;46103;52.076;113.488;2022-10-16T08:03:45;7.10;;;2.97;;
60241;SDS011;46103;52.076;113.488;2022-10-16T08:06:51;6.90;;;2.17;;
60241;SDS011;46103;52.076;113.488;2022-10-16T08:09:55;6.18;;;1.30;;
60241;SDS011;46103;52.076;113.488;2022-10-16T08:13:02;5.80;;;1.50;;
60241;SDS011;46103;52.076;113.488;2022-10-16T08:16:10;5.10;;;1.42;;
60241;SDS011;46103;52.076;113.488;2022-10-16T08:19:14;2.30;;;1.10;;
60241;SDS011;46103;52.076;113.488;2022-10-16T08:22:19;2.35;;;0.50;;
60241;SDS011;46103;52.076;113.488;2022-10-16T08:25:25;3.90;;;0.73;;
60241;SDS011;46103;52.076;113.488;2022-10-16T08:28:30;5.00;;;0.90;;
60241;SDS011;46103;52.076;113.488;2022-10-16T08:31:33;3.40;;;1.00;;
60241;SDS011;46103;52.076;113.488;2022-10-16T08:34:39;1.55;;;0.60;;
60241;SDS011;46103;52.076;113.488;2022-10-16T08:37:42;6.05;;;1.40;;
60241;SDS011;46103;52.076;113.488;2022-10-16T08:40:46;4.28;;;1.52;;
60241;SDS011;46103;52.076;113.488;2022-10-16T08:44:11;5.38;;;1.88;;
60241;SDS011;46103;52.076;113.488;2022-10-16T08:51:00;6.75;;;2.25;;
60241;SDS011;46103;52.076;113.488;2022-10-16T08:54:08;5.43;;;2.00;;
60241;SDS011;46103;52.076;113.488;2022-10-16T08:57:31;3.38;;;1.20;;
60241;SDS011;46103;52.076;113.488;2022-10-16T09:00:36;3.05;;;1.15;;
60241;SDS011;46103;52.076;113.488;2022-10-16T09:07:04;3.95;;;1.50;;
60241;SDS011;46103;52.076;113.488;2022-10-16T09:17:41;6.45;;;2.63;;
60241;SDS011;46103;52.076;113.488;2022-10-16T09:21:18;14.00;;;4.13;;
60241;SDS011;46103;52.076;113.488;2022-10-16T09:24:23;10.90;;;2.92;;
60241;SDS011;46103;52.076;113.488;2022-10-16T09:30:33;6.10;;;1.70;;
60241;SDS011;46103;52.076;113.488;2022-10-16T09:33:37;12.15;;;3.08;;
60241;SDS011;46103;52.076;113.488;2022-10-16T09:36:44;15.18;;;2.92;;
60241;SDS011;46103;52.076;113.488;2022-10-16T09:39:50;6.75;;;1.67;;
60241;SDS011;46103;52.076;113.488;2022-10-16T09:43:01;4.88;;;1.90;;
60241;SDS011;46103;52.076;113.488;2022-10-16T09:46:27;11.32;;;3.97;;
60241;SDS011;46103;52.076;113.488;2022-10-16T09:49:33;5.55;;;1.17;;
60241;SDS011;46103;52.076;113.488;2022-10-16T09:52:36;14.82;;;4.60;;
60241;SDS011;46103;52.076;113.488;2022-10-16T09:55:49;16.63;;;4.38;;
60241;SDS011;46103;52.076;113.488;2022-10-16T09:58:56;15.98;;;5.65;;
60241;SDS011;46103;52.076;113.488;2022-10-16T10:02:03;14.52;;;4.40;;
60241;SDS011;46103;52.076;113.488;2022-10-16T10:05:18;23.00;;;7.32;;
60241;SDS011;46103;52.076;113.488;2022-10-16T10:08:29;18.35;;;7.38;;
60241;SDS011;46103;52.076;113.488;2022-10-16T10:14:48;27.58;;;9.13;;
60241;SDS011;46103;52.076;113.488;2022-10-16T10:17:53;20.23;;;7.88;;
60241;SDS011;46103;52.076;113.488;2022-10-16T10:21:01;33.97;;;11.93;;
60241;SDS011;46103;52.076;113.488;2022-10-16T10:24:11;22.13;;;9.10;;
60241;SDS011;46103;52.076;113.488;2022-10-16T10:27:18;24.77;;;10.93;;
60241;SDS011;46103;52.076;113.488;2022-10-16T10:37:00;37.08;;;13.07;;
60241;SDS011;46103;52.076;113.488;2022-10-16T10:43:59;46.72;;;14.32;;
60241;SDS011;46103;52.076;113.488;2022-10-16T10:51:09;42.92;;;14.43;;
60241;SDS011;46103;52.076;113.488;2022-10-16T10:57:57;49.88;;;14.88;;
60241;SDS011;46103;52.076;113.488;2022-10-16T11:07:42;27.65;;;7.45;;
60241;SDS011;46103;52.076;113.488;2022-10-16T11:10:56;23.33;;;6.65;;
60241;SDS011;46103;52.076;113.488;2022-10-16T11:20:18;5.30;;;1.25;;
60241;SDS011;46103;52.076;113.488;2022-10-16T11:26:39;3.30;;;1.52;;
60241;SDS011;46103;52.076;113.488;2022-10-16T11:29:53;5.53;;;1.73;;
60241;SDS011;46103;52.076;113.488;2022-10-16T11:36:14;6.60;;;2.30;;
60241;SDS011;46103;52.076;113.488;2022-10-16T11:39:27;3.60;;;1.75;;
60241;SDS011;46103;52.076;113.488;2022-10-16T11:42:40;3.17;;;1.33;;
60241;SDS011;46103;52.076;113.488;2022-10-16T11:45:55;9.20;;;2.85;;
60241;SDS011;46103;52.076;113.488;2022-10-16T11:49:13;7.78;;;3.22;;
60241;SDS011;46103;52.076;113.488;2022-10-16T11:52:33;7.40;;;2.92;;
60241;SDS011;46103;52.076;113.488;2022-10-16T11:55:45;8.50;;;2.50;;
60241;SDS011;46103;52.076;113.488;2022-10-16T12:09:28;4.43;;;2.03;;
60241;SDS011;46103;52.076;113.488;2022-10-16T12:12:38;3.58;;;1.30;;
60241;SDS011;46103;52.076;113.488;2022-10-16T12:15:43;5.97;;;1.50;;
60241;SDS011;46103;52.076;113.488;2022-10-16T12:19:14;4.63;;;1.70;;
60241;SDS011;46103;52.076;113.488;2022-10-16T12:22:21;3.53;;;1.58;;
60241;SDS011;46103;52.076;113.488;2022-10-16T12:28:38;4.80;;;1.67;;
60241;SDS011;46103;52.076;113.488;2022-10-16T12:31:44;4.55;;;1.45;;
60241;SDS011;46103;52.076;113.488;2022-10-16T12:35:00;3.55;;;1.48;;
60241;SDS011;46103;52.076;113.488;2022-10-16T12:38:19;13.77;;;3.00;;
60241;SDS011;46103;52.076;113.488;2022-10-16T12:44:34;7.05;;;1.55;;
60241;SDS011;46103;52.076;113.488;2022-10-16T12:47:47;4.97;;;1.55;;
60241;SDS011;46103;52.076;113.488;2022-10-16T12:50:52;4.20;;;1.63;;
60241;SDS011;46103;52.076;113.488;2022-10-16T12:54:04;6.32;;;1.85;;
60241;SDS011;46103;52.076;113.488;2022-10-16T12:57:31;4.10;;;1.55;;
60241;SDS011;46103;52.076;113.488;2022-10-16T13:00:45;2.78;;;1.27;;
60241;SDS011;46103;52.076;113.488;2022-10-16T13:04:00;2.15;;;1.20;;
60241;SDS011;46103;52.076;113.488;2022-10-16T13:25:19;5.57;;;1.23;;
60241;SDS011;46103;52.076;113.488;2022-10-16T13:28:35;5.43;;;1.90;;
60241;SDS011;46103;52.076;113.488;2022-10-16T13:31:41;2.63;;;1.17;;
60241;SDS011;46103;52.076;113.488;2022-10-16T13:34:48;7.63;;;1.67;;
60241;SDS011;46103;52.076;113.488;2022-10-16T13:38:03;7.20;;;1.90;;
60241;SDS011;46103;52.076;113.488;2022-10-16T13:41:15;7.47;;;2.13;;
60241;SDS011;46103;52.076;113.488;2022-10-16T13:44:22;4.40;;;1.63;;
60241;SDS011;46103;52.076;113.488;2022-10-16T13:47:27;4.20;;;1.70;;
60241;SDS011;46103;52.076;113.488;2022-10-16T13:50:33;4.77;;;1.87;;
60241;SDS011;46103;52.076;113.488;2022-10-16T13:53:37;5.53;;;1.70;;
60241;SDS011;46103;52.076;113.488;2022-10-16T13:56:41;3.88;;;1.52;;
60241;SDS011;46103;52.076;113.488;2022-10-16T13:59:45;2.60;;;1.23;;
60241;SDS011;46103;52.076;113.488;2022-10-16T14:03:07;4.50;;;1.98;;
60241;SDS011;46103;52.076;113.488;2022-10-16T14:06:19;8.68;;;2.78;;
60241;SDS011;46103;52.076;113.488;2022-10-16T14:09:28;8.18;;;2.50;;
60241;SDS011;46103;52.076;113.488;2022-10-16T14:12:34;5.63;;;1.85;;
60241;SDS011;46103;52.076;113.488;2022-10-16T14:15:38;4.28;;;1.73;;
60241;SDS011;46103;52.076;113.488;2022-10-16T14:22:11;3.35;;;1.38;;
60241;SDS011;46103;52.076;113.488;2022-10-16T14:25:43;2.80;;;1.33;;
60241;SDS011;46103;52.076;113.488;2022-10-16T14:28:47;4.32;;;1.88;;
60241;SDS011;46103;52.076;113.488;2022-10-16T14:31:56;5.63;;;1.52;;
60241;SDS011;46103;52.076;113.488;2022-10-16T14:35:00;6.97;;;1.83;;
60241;SDS011;46103;52.076;113.488;2022-10-16T14:38:04;4.25;;;1.52;;
60241;SDS011;46103;52.076;113.488;2022-10-16T14:41:09;4.28;;;1.65;;
60241;SDS011;46103;52.076;113.488;2022-10-16T14:44:13;5.00;;;1.98;;
60241;SDS011;46103;52.076;113.488;2022-10-16T14:47:19;3.05;;;1.48;;
60241;SDS011;46103;52.076;113.488;2022-10-16T14:50:30;4.57;;;1.55;;
60241;SDS011;46103;52.076;113.488;2022-10-16T14:53:34;4.38;;;1.40;;
60241;SDS011;46103;52.076;113.488;2022-10-16T14:56:43;5.45;;;1.75;;
60241;SDS011;46103;52.076;113.488;2022-10-16T14:59:55;7.00;;;2.85;;
60241;SDS011;46103;52.076;113.488;2022-10-16T15:02:58;9.13;;;2.90;;
60241;SDS011;46103;52.076;113.488;2022-10-16T15:06:02;4.03;;;1.65;;
60241;SDS011;46103;52.076;113.488;2022-10-16T15:09:06;9.07;;;3.22;;
60241;SDS011;46103;52.076;113.488;2022-10-16T15:12:09;8.32;;;2.65;;
60241;SDS011;46103;52.076;113.488;2022-10-16T15:15:25;8.88;;;2.78;;
60241;SDS011;46103;52.076;113.488;2022-10-16T15:18:35;9.23;;;3.47;;
60241;SDS011;46103;52.076;113.488;2022-10-16T15:21:38;10.07;;;3.35;;
60241;SDS011;46103;52.076;113.488;2022-10-16T15:24:42;10.07;;;3.55;;
60241;SDS011;46103;52.076;113.488;2022-10-16T15:27:55;7.20;;;2.67;;
60241;SDS011;46103;52.076;113.488;2022-10-16T15:30:58;6.65;;;2.40;;
60241;SDS011;46103;52.076;113.488;2022-10-16T15:34:01;5.35;;;2.00;;
60241;SDS011;46103;52.076;113.488;2022-10-16T15:37:06;5.18;;;2.00;;
60241;SDS011;46103;52.076;113.488;2022-10-16T15:40:11;7.75;;;2.80;;
60241;SDS011;46103;52.076;113.488;2022-10-16T15:43:15;5.78;;;2.00;;
60241;SDS011;46103;52.076;113.488;2022-10-16T15:46:19;5.07;;;2.15;;
60241;SDS011;46103;52.076;113.488;2022-10-16T15:49:24;3.47;;;1.67;;
60241;SDS011;46103;52.076;113.488;2022-10-16T15:52:28;4.65;;;1.10;;
60241;SDS011;46103;52.076;113.488;2022-10-16T15:55:32;5.95;;;2.67;;
60241;SDS011;46103;52.076;113.488;2022-10-16T15:58:38;6.18;;;2.20;;
60241;SDS011;46103;52.076;113.488;2022-10-16T16:01:42;6.30;;;2.22;;
60241;SDS011;46103;52.076;113.488;2022-10-16T16:04:46;3.00;;;1.50;;
60241;SDS011;46103;52.076;113.488;2022-10-16T16:07:50;7.07;;;2.60;;
60241;SDS011;46103;52.076;113.488;2022-10-16T16:11:05;5.47;;;2.33;;
60241;SDS011;46103;52.076;113.488;2022-10-16T16:14:11;7.65;;;2.45;;
60241;SDS011;46103;52.076;113.488;2022-10-16T16:17:15;4.45;;;1.98;;
60241;SDS011;46103;52.076;113.488;2022-10-16T16:20:54;6.38;;;1.92;;
60241;SDS011;46103;52.076;113.488;2022-10-16T16:24:05;8.10;;;2.63;;
60241;SDS011;46103;52.076;113.488;2022-10-16T16:27:16;5.65;;;2.22;;
60241;SDS011;46103;52.076;113.488;2022-10-16T16:30:25;6.35;;;2.20;;
60241;SDS011;46103;52.076;113.488;2022-10-16T16:33:34;8.15;;;2.45;;
60241;SDS011;46103;52.076;113.488;2022-10-16T16:36:43;6.65;;;2.45;;
60241;SDS011;46103;52.076;113.488;2022-10-16T16:39:51;6.13;;;1.80;;
60241;SDS011;46103;52.076;113.488;2022-10-16T16:43:03;10.02;;;2.80;;
60241;SDS011;46103;52.076;113.488;2022-10-16T16:46:12;3.92;;;1.70;;
60241;SDS011;46103;52.076;113.488;2022-10-16T16:49:20;9.60;;;2.70;;
60241;SDS011;46103;52.076;113.488;2022-10-16T16:52:29;6.55;;;2.13;;
60241;SDS011;46103;52.076;113.488;2022-10-16T16:55:37;7.85;;;2.60;;
60241;SDS011;46103;52.076;113.488;2022-10-16T16:58:47;6.22;;;2.50;;
60241;SDS011;46103;52.076;113.488;2022-10-16T17:01:57;5.95;;;2.20;;
60241;SDS011;46103;52.076;113.488;2022-10-16T17:05:06;7.40;;;2.25;;
60241;SDS011;46103;52.076;113.488;2022-10-16T17:08:14;4.45;;;2.00;;
60241;SDS011;46103;52.076;113.488;2022-10-16T17:11:23;6.70;;;2.38;;
60241;SDS011;46103;52.076;113.488;2022-10-16T17:14:32;5.63;;;2.00;;
60241;SDS011;46103;52.076;113.488;2022-10-16T17:17:40;7.40;;;2.67;;
60241;SDS011;46103;52.076;113.488;2022-10-16T17:23:57;5.88;;;2.05;;
60241;SDS011;46103;52.076;113.488;2022-10-16T17:27:05;7.80;;;2.28;;
60241;SDS011;46103;52.076;113.488;2022-10-16T17:30:13;4.50;;;1.70;;
60241;SDS011;46103;52.076;113.488;2022-10-16T17:33:22;7.70;;;1.85;;
60241;SDS011;46103;52.076;113.488;2022-10-16T17:36:33;5.25;;;2.28;;
60241;SDS011;46103;52.076;113.488;2022-10-16T17:39:42;5.95;;;1.88;;
60241;SDS011;46103;52.076;113.488;2022-10-16T17:42:50;3.25;;;1.63;;
60241;SDS011;46103;52.076;113.488;2022-10-16T17:46:03;3.38;;;1.63;;
60241;SDS011;46103;52.076;113.488;2022-10-16T17:49:12;4.25;;;1.70;;
60241;SDS011;46103;52.076;113.488;2022-10-16T17:52:19;4.17;;;1.60;;
60241;SDS011;46103;52.076;113.488;2022-10-16T17:55:28;2.97;;;1.27;;
60241;SDS011;46103;52.076;113.488;2022-10-16T17:58:39;3.35;;;1.52;;
60241;SDS011;46103;52.076;113.488;2022-10-16T18:01:53;5.38;;;1.92;;
60241;SDS011;46103;52.076;113.488;2022-10-16T18:05:02;3.47;;;1.58;;
60241;SDS011;46103;52.076;113.488;2022-10-16T18:08:11;2.95;;;1.25;;
60241;SDS011;46103;52.076;113.488;2022-10-16T18:11:20;2.60;;;1.20;;
60241;SDS011;46103;52.076;113.488;2022-10-16T18:14:29;3.53;;;1.55;;
60241;SDS011;46103;52.076;113.488;2022-10-16T18:17:38;1.73;;;1.10;;
60241;SDS011;46103;52.076;113.488;2022-10-16T18:20:55;2.85;;;1.10;;
60241;SDS011;46103;52.076;113.488;2022-10-16T18:24:07;2.78;;;1.25;;
60241;SDS011;46103;52.076;113.488;2022-10-16T18:27:15;2.45;;;1.20;;
60241;SDS011;46103;52.076;113.488;2022-10-16T18:30:23;2.40;;;1.13;;
60241;SDS011;46103;52.076;113.488;2022-10-16T18:33:30;1.77;;;1.00;;
60241;SDS011;46103;52.076;113.488;2022-10-16T18:36:40;3.78;;;1.10;;
60241;SDS011;46103;52.076;113.488;2022-10-16T18:39:49;1.83;;;1.02;;
60241;SDS011;46103;52.076;113.488;2022-10-16T18:43:00;2.22;;;1.10;;
60241;SDS011;46103;52.076;113.488;2022-10-16T18:46:10;2.15;;;1.00;;
60241;SDS011;46103;52.076;113.488;2022-10-16T18:49:24;2.42;;;1.10;;
60241;SDS011;46103;52.076;113.488;2022-10-16T18:52:32;2.63;;;1.20;;
60241;SDS011;46103;52.076;113.488;2022-10-16T18:55:43;1.10;;;0.82;;
60241;SDS011;46103;52.076;113.488;2022-10-16T18:58:59;0.88;;;0.70;;
60241;SDS011;46103;52.076;113.488;2022-10-16T19:02:10;2.88;;;0.75;;
60241;SDS011;46103;52.076;113.488;2022-10-16T19:05:18;1.67;;;1.00;;
60241;SDS011;46103;52.076;113.488;2022-10-16T19:08:28;1.23;;;0.90;;
60241;SDS011;46103;52.076;113.488;2022-10-16T19:11:38;1.90;;;1.15;;
60241;SDS011;46103;52.076;113.488;2022-10-16T19:14:47;1.77;;;1.00;;
60241;SDS011;46103;52.076;113.488;2022-10-16T19:17:54;2.15;;;1.05;;
60241;SDS011;46103;52.076;113.488;2022-10-16T19:21:05;2.78;;;1.10;;
60241;SDS011;46103;52.076;113.488;2022-10-16T19:24:17;1.95;;;1.08;;
60241;SDS011;46103;52.076;113.488;2022-10-16T19:27:27;2.42;;;1.10;;
60241;SDS011;46103;52.076;113.488;2022-10-16T19:30:39;2.67;;;1.13;;
60241;SDS011;46103;52.076;113.488;2022-10-16T19:33:54;1.52;;;1.10;;
60241;SDS011;46103;52.076;113.488;2022-10-16T19:37:03;2.63;;;1.00;;
60241;SDS011;46103;52.076;113.488;2022-10-16T19:43:17;1.52;;;1.10;;
60241;SDS011;46103;52.076;113.488;2022-10-16T19:46:26;2.53;;;1.00;;
60241;SDS011;46103;52.076;113.488;2022-10-16T19:49:36;2.25;;;1.10;;
60241;SDS011;46103;52.076;113.488;2022-10-16T19:52:46;1.58;;;0.90;;
60241;SDS011;46103;52.076;113.488;2022-10-16T19:55:57;1.70;;;0.88;;
60241;SDS011;46103;52.076;113.488;2022-10-16T19:59:07;3.28;;;1.10;;
60241;SDS011;46103;52.076;113.488;2022-10-16T20:02:18;2.03;;;1.08;;
60241;SDS011;46103;52.076;113.488;2022-10-16T20:05:28;1.80;;;0.90;;
60241;SDS011;46103;52.076;113.488;2022-10-16T20:08:38;1.65;;;1.20;;
60241;SDS011;46103;52.076;113.488;2022-10-16T20:11:47;1.85;;;1.00;;
60241;SDS011;46103;52.076;113.488;2022-10-16T20:14:58;2.10;;;0.95;;
60241;SDS011;46103;52.076;113.488;2022-10-16T20:18:09;1.45;;;1.10;;
60241;SDS011;46103;52.076;113.488;2022-10-16T20:21:19;2.03;;;0.90;;
60241;SDS011;46103;52.076;113.488;2022-10-16T20:24:28;1.77;;;1.00;;